Time;durP1;ratioP1;P1;durP2;ratioP2;P2;SDS_P1;SDS_P2;PMS_P1;PMS_P2;Temp;Humidity;BMP_temperature;BMP_pressure;BME280_temperature;BME280_humidity;BME280_pressure;Samples;Min_cycle;Max_cycle;Signal;HPM_P1;HPM_P2
2023/03/24 00:00:44;;;;;;;2.05;1.00;;;17.70;96.50;;;;;;5032592;28;20084;-71
2023/03/24 00:03:09;;;;;;;3.13;1.10;;;17.70;96.50;;;;;;5032568;28;20418;-69
2023/03/24 00:05:35;;;;;;;2.30;1.00;;;17.60;96.50;;;;;;5032413;28;20059;-70
2023/03/24 00:08:01;;;;;;;2.38;0.80;;;17.60;96.50;;;;;;5032589;28;20052;-70
2023/03/24 00:10:29;;;;;;;3.25;1.42;;;17.60;96.50;;;;;;5032347;28;20021;-70
2023/03/24 00:12:57;;;;;;;2.22;0.70;;;17.60;96.50;;;;;;5032585;28;20478;-69
2023/03/24 00:15:24;;;;;;;2.80;1.35;;;17.70;96.50;;;;;;5032224;28;20030;-70
2023/03/24 00:17:50;;;;;;;3.25;1.02;;;17.60;96.50;;;;;;5032472;28;20510;-68
2023/03/24 00:20:18;;;;;;;1.48;0.90;;;17.60;96.50;;;;;;5032127;28;20030;-70
2023/03/24 00:22:57;;;;;;;2.28;1.05;;;17.60;96.50;;;;;;5036510;28;20029;-69
2023/03/24 00:25:35;;;;;;;3.05;1.10;;;17.60;96.60;;;;;;5036577;28;20505;-69
2023/03/24 00:28:02;;;;;;;2.55;0.90;;;17.60;96.60;;;;;;5036822;28;20029;-71
2023/03/24 00:30:27;;;;;;;2.45;1.08;;;17.60;96.60;;;;;;5034811;28;20025;-72
2023/03/24 00:32:53;;;;;;;2.88;1.23;;;17.60;96.60;;;;;;5036609;28;20104;-70
2023/03/24 00:35:20;;;;;;;2.42;0.98;;;17.60;96.50;;;;;;5036000;28;20025;-69
2023/03/24 00:37:46;;;;;;;2.80;1.00;;;17.60;96.60;;;;;;5036754;28;20029;-71
2023/03/24 00:40:18;;;;;;;2.55;1.00;;;17.60;96.60;;;;;;5036359;28;20037;-72
2023/03/24 00:42:45;;;;;;;2.42;1.15;;;17.60;96.50;;;;;;5036386;28;20025;-70
2023/03/24 00:45:14;;;;;;;1.98;0.68;;;17.60;96.50;;;;;;5035790;28;20025;-72
2023/03/24 00:47:39;;;;;;;1.02;0.57;;;17.60;96.50;;;;;;5036117;28;20025;-69
2023/03/24 00:50:10;;;;;;;1.77;1.00;;;17.60;96.50;;;;;;5035903;28;20087;-71
2023/03/24 00:52:36;;;;;;;1.27;0.70;;;17.60;96.50;;;;;;5036054;28;20029;-69
2023/03/24 00:55:05;;;;;;;2.13;1.00;;;17.60;96.50;;;;;;5035825;28;20053;-70
2023/03/24 00:57:33;;;;;;;1.55;0.88;;;17.60;96.60;;;;;;5035960;28;20029;-72
2023/03/24 01:00:08;;;;;;;2.45;1.20;;;17.50;96.50;;;;;;5035447;28;20029;-68
2023/03/24 01:02:33;;;;;;;1.75;1.00;;;17.50;96.60;;;;;;5035944;28;20018;-70
2023/03/24 01:05:01;;;;;;;2.13;0.85;;;17.50;96.60;;;;;;5035785;28;20033;-67
2023/03/24 01:07:28;;;;;;;2.35;1.00;;;17.50;96.60;;;;;;5035582;28;20021;-71
2023/03/24 01:09:58;;;;;;;1.90;1.02;;;17.60;96.60;;;;;;5035901;28;20113;-69
2023/03/24 01:12:35;;;;;;;1.73;1.08;;;17.50;96.60;;;;;;5035772;28;20437;-70
2023/03/24 01:15:06;;;;;;;3.50;1.08;;;17.50;96.70;;;;;;5035347;28;20029;-71
2023/03/24 01:17:33;;;;;;;2.25;1.10;;;17.50;96.70;;;;;;5035600;28;20044;-70
2023/03/24 01:19:59;;;;;;;1.48;0.70;;;17.50;96.70;;;;;;5035392;28;20080;-71
2023/03/24 01:22:29;;;;;;;2.25;1.00;;;17.50;96.60;;;;;;5035432;28;20068;-70
2023/03/24 01:24:55;;;;;;;4.40;1.08;;;17.50;96.70;;;;;;5035542;28;20474;-72
2023/03/24 01:27:21;;;;;;;2.30;0.90;;;17.50;96.70;;;;;;5035250;28;20543;-70
2023/03/24 01:29:47;;;;;;;2.47;1.15;;;17.50;96.70;;;;;;5035182;28;20413;-69
2023/03/24 01:32:15;;;;;;;1.92;0.80;;;17.50;96.70;;;;;;5035623;28;20025;-69
2023/03/24 01:34:41;;;;;;;2.85;1.00;;;17.50;96.70;;;;;;5034716;28;20475;-70
2023/03/24 01:37:07;;;;;;;2.20;1.10;;;17.50;96.80;;;;;;5035204;28;20058;-72
2023/03/24 01:39:32;;;;;;;2.55;0.85;;;17.40;96.80;;;;;;5035141;28;20036;-70
2023/03/24 01:41:58;;;;;;;1.83;0.88;;;17.40;96.80;;;;;;5035067;28;20029;-68
2023/03/24 01:44:29;;;;;;;1.13;0.70;;;17.40;96.80;;;;;;5034618;28;20021;-69
2023/03/24 01:46:56;;;;;;;1.95;0.98;;;17.50;96.90;;;;;;5035078;28;20073;-69
2023/03/24 01:49:24;;;;;;;2.75;0.90;;;17.40;96.90;;;;;;5034907;28;20378;-69
2023/03/24 01:51:54;;;;;;;2.38;1.20;;;17.30;97.00;;;;;;5034755;28;20064;-70
2023/03/24 01:54:43;;;;;;;1.92;0.88;;;17.30;97.00;;;;;;5035017;28;20124;-68
2023/03/24 01:57:39;;;;;;;1.48;0.65;;;17.30;97.00;;;;;;5034110;28;20057;-71
2023/03/24 02:00:11;;;;;;;3.97;1.27;;;17.20;97.30;;;;;;5034517;28;20081;-68
2023/03/24 02:02:39;;;;;;;1.67;0.75;;;17.20;96.90;;;;;;5034569;28;20036;-71
2023/03/24 02:05:09;;;;;;;2.65;0.70;;;17.20;96.80;;;;;;5034612;28;20029;-69
2023/03/24 02:07:52;;;;;;;3.00;0.82;;;17.20;96.90;;;;;;5034589;28;20039;-71
2023/03/24 02:10:20;;;;;;;1.80;0.70;;;17.10;96.90;;;;;;5034618;28;20044;-71
2023/03/24 02:12:47;;;;;;;2.60;0.80;;;17.10;96.70;;;;;;5034358;28;20044;-68
2023/03/24 02:15:15;;;;;;;2.45;0.80;;;17.10;96.60;;;;;;5034436;28;20072;-68
2023/03/24 02:17:53;;;;;;;2.17;0.80;;;17.10;96.60;;;;;;5034311;28;20123;-68
2023/03/24 02:20:21;;;;;;;1.67;0.68;;;17.10;96.70;;;;;;5034507;28;20038;-71
2023/03/24 02:23:16;;;;;;;2.90;0.47;;;17.00;96.40;;;;;;5034351;28;20032;-71
2023/03/24 02:26:12;;;;;;;0.98;0.38;;;17.00;96.40;;;;;;5034066;28;20025;-68
2023/03/24 02:28:51;;;;;;;1.20;0.47;;;16.90;96.20;;;;;;5034307;28;20041;-69
2023/03/24 02:31:47;;;;;;;3.33;0.65;;;16.80;96.00;;;;;;5034397;28;20108;-69
2023/03/24 02:34:43;;;;;;;2.80;0.63;;;16.90;96.40;;;;;;5032767;28;20031;-70
2023/03/24 02:37:46;;;;;;;3.20;0.88;;;16.90;96.50;;;;;;5034133;28;20063;-67
2023/03/24 02:40:21;;;;;;;;;;;16.80;96.40;;;;;;5034299;28;20041;-71
2023/03/24 02:43:11;;;;;;;4.50;0.85;;;16.80;96.00;;;;;;5034029;28;19905;-71
2023/03/24 02:46:00;;;;;;;3.35;0.90;;;16.80;96.10;;;;;;5033723;28;20030;-69
2023/03/24 02:48:40;;;;;;;2.08;0.90;;;16.90;96.50;;;;;;5033688;28;20033;-68
2023/03/24 02:51:24;;;;;;;1.27;0.68;;;16.80;96.10;;;;;;5033914;28;20552;-71
2023/03/24 02:54:14;;;;;;;6.20;1.30;;;16.80;96.10;;;;;;5033752;28;20067;-69
2023/03/24 02:56:53;;;;;;;3.55;0.70;;;16.70;95.90;;;;;;5033599;28;20458;-70
2023/03/24 02:59:29;;;;;;;2.50;0.68;;;16.70;96.30;;;;;;5033428;28;20041;-70
2023/03/24 03:02:21;;;;;;;3.53;0.70;;;16.70;96.50;;;;;;5033966;28;20054;-67
2023/03/24 03:04:59;;;;;;;5.28;1.35;;;16.60;95.70;;;;;;5033428;28;20085;-71
2023/03/24 03:07:28;;;;;;;2.97;0.82;;;16.60;96.10;;;;;;5033408;28;20104;-69
2023/03/24 03:10:01;;;;;;;3.00;1.00;;;16.60;95.80;;;;;;5033244;28;20021;-71
2023/03/24 03:12:32;;;;;;;6.90;1.00;;;16.50;95.90;;;;;;5033524;28;20470;-70
2023/03/24 03:15:08;;;;;;;4.70;1.23;;;16.60;96.00;;;;;;5033259;28;20021;-68
2023/03/24 03:17:42;;;;;;;2.72;0.70;;;16.60;95.90;;;;;;5033402;28;20068;-69
2023/03/24 03:20:15;;;;;;;3.50;0.80;;;16.60;96.50;;;;;;5033365;28;20029;-70
2023/03/24 03:23:01;;;;;;;;;;;16.60;96.30;;;;;;5033421;28;20552;-70
2023/03/24 03:25:31;;;;;;;3.38;0.85;;;16.60;96.00;;;;;;5033247;28;19905;-69
2023/03/24 03:28:02;;;;;;;4.95;1.17;;;16.50;95.90;;;;;;5033595;28;20049;-70
2023/03/24 03:30:37;;;;;;;3.85;1.00;;;16.50;96.30;;;;;;5033083;28;20079;-68
2023/03/24 03:33:17;;;;;;;2.67;0.63;;;16.50;96.20;;;;;;5033312;28;20056;-69
2023/03/24 03:35:55;;;;;;;5.10;0.85;;;16.60;96.40;;;;;;5033008;28;20026;-69
2023/03/24 03:38:33;;;;;;;7.22;1.48;;;16.60;96.30;;;;;;5032917;28;20030;-71
2023/03/24 03:41:01;;;;;;;5.15;1.08;;;16.50;95.80;;;;;;5033139;28;20112;-69
2023/03/24 03:43:29;;;;;;;4.40;0.80;;;16.50;96.00;;;;;;5032802;28;20018;-71
2023/03/24 03:45:55;;;;;;;6.75;1.33;;;16.50;96.30;;;;;;5032966;28;20041;-68
2023/03/24 03:48:21;;;;;;;5.13;1.00;;;16.40;96.20;;;;;;5032784;28;20033;-70
2023/03/24 03:50:47;;;;;;;5.13;1.30;;;16.50;96.30;;;;;;5032734;28;20059;-70
2023/03/24 03:53:16;;;;;;;6.00;1.25;;;16.40;95.90;;;;;;5032573;28;20029;-70
2023/03/24 03:55:42;;;;;;;3.65;1.02;;;16.30;95.70;;;;;;5032633;28;20025;-69
2023/03/24 03:58:09;;;;;;;2.53;0.65;;;16.40;96.30;;;;;;5032655;28;20482;-71
2023/03/24 04:00:36;;;;;;;4.32;1.20;;;16.40;96.40;;;;;;5029587;28;20098;-69
2023/03/24 04:03:38;;;;;;;9.02;1.63;;;16.40;95.80;;;;;;5026140;28;20022;-69
2023/03/24 04:06:18;;;;;;;8.73;1.85;;;16.30;95.80;;;;;;5011335;28;20125;-67
2023/03/24 04:09:20;;;;;;;5.18;1.45;;;16.20;95.60;;;;;;5010769;28;20384;-69
2023/03/24 04:12:03;;;;;;;5.13;1.15;;;16.20;95.70;;;;;;5012839;28;20022;-69
2023/03/24 04:14:50;;;;;;;5.13;1.38;;;16.20;96.00;;;;;;5012758;28;20045;-70
2023/03/24 04:17:28;;;;;;;6.95;1.25;;;16.10;95.90;;;;;;5012813;28;20033;-69
2023/03/24 04:20:21;;;;;;;6.60;1.33;;;16.20;96.30;;;;;;5012462;28;20052;-68
2023/03/24 04:22:53;;;;;;;;;;;16.10;96.00;;;;;;5015202;28;20026;-70
2023/03/24 04:25:39;;;;;;;4.30;0.82;;;16.20;96.30;;;;;;5021101;28;20377;-70
2023/03/24 04:28:25;;;;;;;2.28;0.73;;;16.20;96.30;;;;;;5011921;28;20483;-71
2023/03/24 04:31:13;;;;;;;4.22;1.15;;;16.20;96.40;;;;;;5010924;28;20037;-69
2023/03/24 04:34:02;;;;;;;3.50;0.98;;;16.20;96.40;;;;;;5011157;28;20105;-70
2023/03/24 04:36:41;;;;;;;8.45;1.77;;;16.20;96.30;;;;;;5010666;28;20623;-69
2023/03/24 04:39:12;;;;;;;3.63;0.90;;;16.10;96.10;;;;;;5011075;28;20554;-69
2023/03/24 04:41:39;;;;;;;3.78;1.15;;;16.10;96.40;;;;;;5010912;28;20053;-69
2023/03/24 04:44:05;;;;;;;7.10;1.63;;;16.20;96.70;;;;;;5011894;28;20430;-70
2023/03/24 04:46:31;;;;;;;6.28;1.90;;;16.10;96.10;;;;;;5027634;28;20124;-69
2023/03/24 04:48:57;;;;;;;5.90;1.17;;;16.00;96.00;;;;;;5012571;28;20017;-71
2023/03/24 04:51:23;;;;;;;3.75;1.23;;;16.10;96.30;;;;;;5012322;28;20479;-68
2023/03/24 04:53:49;;;;;;;5.45;1.33;;;16.10;96.40;;;;;;5012397;28;20081;-70
2023/03/24 04:56:27;;;;;;;4.07;0.77;;;16.10;96.40;;;;;;5012416;28;20427;-70
2023/03/24 04:58:52;;;;;;;6.32;1.35;;;16.10;96.50;;;;;;5012406;28;20360;-70
2023/03/24 05:01:21;;;;;;;5.97;1.60;;;16.10;96.40;;;;;;5012326;28;20083;-69
2023/03/24 05:03:48;;;;;;;5.50;1.55;;;16.00;96.20;;;;;;5012249;28;20528;-69
2023/03/24 05:06:14;;;;;;;4.20;1.25;;;16.00;96.40;;;;;;5011767;28;20383;-71
2023/03/24 05:08:40;;;;;;;5.30;1.35;;;16.00;96.40;;;;;;5015794;28;20018;-69
2023/03/24 05:11:06;;;;;;;5.93;1.30;;;16.00;96.40;;;;;;5016350;28;20367;-69
2023/03/24 05:13:31;;;;;;;5.38;1.77;;;16.00;96.40;;;;;;5018239;28;20030;-71
2023/03/24 05:15:57;;;;;;;6.85;1.30;;;16.00;96.30;;;;;;5031784;28;20112;-68
2023/03/24 05:18:23;;;;;;;8.15;1.48;;;16.00;96.50;;;;;;5034243;28;20370;-71
2023/03/24 05:20:49;;;;;;;6.97;1.83;;;16.00;96.50;;;;;;5034983;28;20036;-70
2023/03/24 05:23:15;;;;;;;5.22;1.38;;;15.90;96.30;;;;;;5035497;28;20402;-71
2023/03/24 05:25:40;;;;;;;7.00;1.65;;;15.90;96.40;;;;;;5035339;28;20037;-71
2023/03/24 05:28:06;;;;;;;7.35;1.90;;;15.90;96.40;;;;;;5035556;28;20026;-68
2023/03/24 05:30:32;;;;;;;9.30;1.50;;;15.90;96.40;;;;;;5035484;28;20033;-68
2023/03/24 05:32:58;;;;;;;4.63;1.27;;;15.90;96.50;;;;;;5035332;28;20100;-69
2023/03/24 05:35:24;;;;;;;8.18;1.75;;;15.90;96.50;;;;;;5033784;28;20036;-70
2023/03/24 05:37:50;;;;;;;5.20;1.40;;;15.80;96.50;;;;;;5032832;28;20032;-69
2023/03/24 05:40:16;;;;;;;7.70;1.63;;;15.80;96.40;;;;;;5032415;28;20037;-68
2023/03/24 05:42:42;;;;;;;7.30;1.50;;;15.90;96.40;;;;;;5030414;28;20100;-68
2023/03/24 05:45:09;;;;;;;6.68;1.50;;;15.90;96.60;;;;;;5032293;28;20402;-69
2023/03/24 05:47:34;;;;;;;5.40;1.42;;;15.80;96.50;;;;;;5030484;28;20075;-71
2023/03/24 05:50:00;;;;;;;5.90;1.45;;;15.80;96.60;;;;;;5033467;28;20021;-70
2023/03/24 05:52:26;;;;;;;4.47;1.00;;;15.80;96.60;;;;;;5033890;28;20478;-70
2023/03/24 05:54:51;;;;;;;10.35;2.33;;;15.80;96.50;;;;;;5032294;28;20463;-67
2023/03/24 05:57:18;;;;;;;6.30;1.80;;;15.70;96.20;;;;;;5031734;28;20498;-70
2023/03/24 05:59:43;;;;;;;14.88;2.70;;;15.70;96.30;;;;;;5025689;28;20034;-69
2023/03/24 06:02:09;;;;;;;10.40;2.72;;;15.60;95.60;;;;;;5029015;28;20502;-68
2023/03/24 06:04:35;;;;;;;14.48;2.08;;;15.50;95.10;;;;;;5028401;28;20150;-71
2023/03/24 06:07:01;;;;;;;8.25;1.38;;;15.50;95.20;;;;;;5037179;28;20024;-69
2023/03/24 06:09:36;;;;;;;9.07;1.83;;;15.50;95.50;;;;;;5046729;28;20024;-69
2023/03/24 06:12:03;;;;;;;6.47;1.67;;;15.50;95.50;;;;;;5041854;28;20021;-69
2023/03/24 06:14:29;;;;;;;7.35;1.73;;;15.50;95.20;;;;;;5053078;28;20033;-70
2023/03/24 06:16:58;;;;;;;5.95;1.35;;;15.50;95.20;;;;;;5045837;28;20032;-68
2023/03/24 06:19:29;;;;;;;6.85;1.50;;;15.50;95.30;;;;;;5018698;28;20029;-69
2023/03/24 06:21:55;;;;;;;8.25;2.13;;;15.40;95.50;;;;;;5021727;28;20308;-69
2023/03/24 06:24:21;;;;;;;12.25;1.95;;;15.50;95.40;;;;;;5030508;28;20379;-69
2023/03/24 06:26:49;;;;;;;5.63;1.52;;;15.50;95.50;;;;;;5037131;28;20498;-68
2023/03/24 06:29:18;;;;;;;5.78;1.38;;;15.50;95.80;;;;;;5037858;28;20021;-70
2023/03/24 06:31:46;;;;;;;5.60;1.13;;;15.50;96.00;;;;;;5031185;28;20037;-68
2023/03/24 06:34:12;;;;;;;7.65;1.52;;;15.50;96.00;;;;;;5025319;28;20018;-70
2023/03/24 06:36:38;;;;;;;5.72;1.35;;;15.70;96.80;;;;;;5024309;28;20037;-68
2023/03/24 06:39:06;;;;;;;9.32;2.10;;;15.80;96.70;;;;;;5025138;28;20534;-69
2023/03/24 06:41:32;;;;;;;4.93;1.88;;;15.80;96.50;;;;;;5033107;28;20026;-71
2023/03/24 06:43:59;;;;;;;14.73;2.33;;;15.80;96.50;;;;;;5030436;28;20128;-69
2023/03/24 06:46:24;;;;;;;11.57;2.22;;;15.90;96.70;;;;;;5038243;28;20109;-70
2023/03/24 06:48:50;;;;;;;10.88;2.60;;;15.90;96.50;;;;;;5029898;28;20118;-71
2023/03/24 06:51:16;;;;;;;5.88;1.50;;;15.90;96.60;;;;;;5031540;28;20482;-72
2023/03/24 06:53:44;;;;;;;8.13;2.45;;;15.90;96.50;;;;;;5032499;28;20049;-72
2023/03/24 06:56:15;;;;;;;7.60;2.38;;;15.90;96.20;;;;;;5031915;28;20049;-70
2023/03/24 06:58:41;;;;;;;9.93;2.33;;;15.90;96.10;;;;;;5023483;28;20032;-70
2023/03/24 07:01:06;;;;;;;8.68;2.17;;;16.00;96.20;;;;;;5029216;28;20033;-71
2023/03/24 07:03:32;;;;;;;10.57;2.33;;;16.00;96.20;;;;;;5033100;28;20032;-70
2023/03/24 07:05:58;;;;;;;10.50;2.53;;;16.00;96.10;;;;;;5027844;28;20409;-68
2023/03/24 07:08:23;;;;;;;13.07;2.58;;;16.00;96.00;;;;;;5025302;28;20013;-69
2023/03/24 07:10:49;;;;;;;13.73;2.40;;;15.90;96.00;;;;;;5036851;28;20033;-69
2023/03/24 07:13:15;;;;;;;11.32;2.22;;;15.90;96.00;;;;;;5027813;28;20382;-71
2023/03/24 07:15:40;;;;;;;9.98;2.20;;;15.90;96.00;;;;;;5031118;28;20047;-70
2023/03/24 07:18:06;;;;;;;10.38;2.40;;;15.90;96.00;;;;;;5030678;28;20500;-69
2023/03/24 07:20:31;;;;;;;10.93;2.10;;;15.80;95.80;;;;;;5033195;28;20077;-70
2023/03/24 07:22:57;;;;;;;9.80;2.47;;;15.80;96.20;;;;;;5031919;28;20029;-71
2023/03/24 07:25:24;;;;;;;11.00;2.58;;;15.80;96.00;;;;;;5033062;28;20025;-69
2023/03/24 07:27:54;;;;;;;9.30;2.78;;;15.80;96.10;;;;;;5031866;28;20036;-70
2023/03/24 07:30:21;;;;;;;10.20;2.42;;;15.80;95.80;;;;;;5032266;28;20045;-71
2023/03/24 07:32:47;;;;;;;8.82;2.17;;;15.80;96.10;;;;;;5033004;28;20032;-69
2023/03/24 07:35:15;;;;;;;9.95;2.65;;;15.90;96.10;;;;;;5033047;28;20029;-68
2023/03/24 07:37:41;;;;;;;8.63;1.90;;;15.90;96.10;;;;;;5033081;28;20064;-70
2023/03/24 07:40:10;;;;;;;9.70;2.55;;;15.90;96.10;;;;;;5032623;28;20068;-70
2023/03/24 07:42:37;;;;;;;9.85;2.20;;;15.80;96.10;;;;;;5032942;28;20100;-71
2023/03/24 07:45:04;;;;;;;10.00;2.15;;;15.90;96.00;;;;;;5032369;28;20025;-70
2023/03/24 07:47:30;;;;;;;9.23;2.38;;;15.80;96.00;;;;;;5032733;28;20021;-70
2023/03/24 07:49:56;;;;;;;6.38;2.15;;;15.90;96.00;;;;;;5032840;28;20041;-69
2023/03/24 07:52:21;;;;;;;8.10;1.90;;;15.80;96.00;;;;;;5032556;28;20037;-69
2023/03/24 07:54:47;;;;;;;9.30;2.30;;;15.80;96.00;;;;;;5032716;28;20022;-69
2023/03/24 07:57:13;;;;;;;10.18;2.53;;;15.80;95.80;;;;;;5032563;28;20608;-68
2023/03/24 07:59:38;;;;;;;9.52;1.85;;;15.80;96.00;;;;;;5030724;28;20116;-70
2023/03/24 08:02:04;;;;;;;8.05;2.35;;;15.80;96.00;;;;;;5032678;28;20099;-68
2023/03/24 08:04:31;;;;;;;7.78;1.65;;;15.80;95.90;;;;;;5032993;28;20025;-68
2023/03/24 08:06:57;;;;;;;8.65;2.15;;;15.80;96.00;;;;;;5032709;28;20367;-71
2023/03/24 08:09:23;;;;;;;9.23;2.40;;;15.80;95.90;;;;;;5032499;28;20028;-69
2023/03/24 08:11:50;;;;;;;8.88;2.20;;;15.80;95.90;;;;;;5032589;28;20029;-69
2023/03/24 08:14:15;;;;;;;7.70;1.98;;;15.80;96.00;;;;;;5032151;28;20049;-69
2023/03/24 08:16:41;;;;;;;7.18;1.88;;;15.80;95.90;;;;;;5032417;28;20102;-69
2023/03/24 08:19:07;;;;;;;9.27;1.75;;;15.80;96.00;;;;;;5031155;28;20025;-69
2023/03/24 08:21:32;;;;;;;6.80;2.15;;;15.90;96.00;;;;;;5032522;28;20030;-70
2023/03/24 08:23:58;;;;;;;8.02;1.75;;;15.80;96.00;;;;;;5032482;28;20018;-71
2023/03/24 08:26:26;;;;;;;7.50;1.83;;;15.90;95.90;;;;;;5032570;28;20030;-70
2023/03/24 08:28:52;;;;;;;9.43;1.85;;;15.90;95.60;;;;;;5032292;28;20128;-70
2023/03/24 08:31:18;;;;;;;7.82;2.28;;;15.90;95.70;;;;;;5032344;28;20478;-71
2023/03/24 08:33:43;;;;;;;10.60;2.33;;;15.90;95.80;;;;;;5032194;28;20030;-68
2023/03/24 08:36:09;;;;;;;10.50;1.75;;;16.00;95.60;;;;;;5032083;28;20032;-71
2023/03/24 08:38:37;;;;;;;8.73;2.25;;;15.90;95.70;;;;;;5032251;28;20040;-68
2023/03/24 08:41:08;;;;;;;10.00;1.95;;;16.00;95.80;;;;;;5032202;28;20486;-71
2023/03/24 08:43:35;;;;;;;6.80;1.80;;;16.00;95.70;;;;;;5035617;28;20036;-71
2023/03/24 08:46:01;;;;;;;5.53;1.67;;;16.00;95.60;;;;;;5036214;28;20132;-70
2023/03/24 08:48:28;;;;;;;7.93;1.67;;;16.00;95.60;;;;;;5036005;28;20018;-71
2023/03/24 08:50:55;;;;;;;7.78;1.85;;;16.00;95.60;;;;;;5036186;28;20037;-71
2023/03/24 08:53:21;;;;;;;11.02;2.10;;;16.00;95.60;;;;;;5035961;28;20458;-69
2023/03/24 08:55:46;;;;;;;6.93;1.95;;;16.00;95.60;;;;;;5035859;28;20075;-70
2023/03/24 08:58:18;;;;;;;6.93;1.80;;;16.10;95.50;;;;;;5035767;28;20029;-69
2023/03/24 09:00:45;;;;;;;5.95;1.90;;;16.10;95.50;;;;;;5035774;28;20076;-68
2023/03/24 09:03:17;;;;;;;6.45;1.60;;;16.10;95.50;;;;;;5035854;28;20458;-71
2023/03/24 09:05:44;;;;;;;5.70;1.67;;;16.10;95.60;;;;;;5035861;28;20036;-72
2023/03/24 09:08:11;;;;;;;7.90;2.22;;;16.10;95.50;;;;;;5035804;28;20033;-70
2023/03/24 09:10:38;;;;;;;6.95;1.70;;;16.10;95.50;;;;;;5035697;28;20029;-69
2023/03/24 09:13:04;;;;;;;6.10;1.52;;;16.10;95.50;;;;;;5035439;28;20029;-70
2023/03/24 09:15:30;;;;;;;5.60;1.63;;;16.10;95.50;;;;;;5035320;28;20048;-69
2023/03/24 09:17:55;;;;;;;6.47;1.40;;;16.10;95.50;;;;;;5035568;28;20060;-69
2023/03/24 09:20:21;;;;;;;9.48;1.67;;;16.10;95.40;;;;;;5033985;28;20402;-69
2023/03/24 09:22:47;;;;;;;7.82;1.80;;;16.10;95.40;;;;;;5035524;28;20451;-68
2023/03/24 09:25:18;;;;;;;9.35;1.88;;;16.20;95.30;;;;;;5035533;28;20411;-69
2023/03/24 09:27:44;;;;;;;6.65;1.52;;;16.20;95.30;;;;;;5033864;28;20048;-70
2023/03/24 09:30:12;;;;;;;8.13;1.73;;;16.20;95.30;;;;;;5035568;28;20021;-68
2023/03/24 09:32:38;;;;;;;8.27;1.83;;;16.10;95.30;;;;;;5035170;28;20029;-70
2023/03/24 09:35:04;;;;;;;5.85;1.58;;;16.20;95.30;;;;;;5035285;28;20036;-70
2023/03/24 09:37:30;;;;;;;5.72;1.55;;;16.20;95.30;;;;;;5035207;28;20495;-69
2023/03/24 09:39:58;;;;;;;6.05;1.92;;;16.20;95.20;;;;;;5035166;28;20370;-70
2023/03/24 09:42:29;;;;;;;7.18;1.60;;;16.20;95.20;;;;;;5034908;28;20130;-70
2023/03/24 09:44:57;;;;;;;4.28;1.40;;;16.20;95.20;;;;;;5035244;28;20437;-68
2023/03/24 09:47:56;;;;;;;4.43;1.20;;;16.30;95.20;;;;;;5035203;28;20029;-68
2023/03/24 09:50:32;;;;;;;5.72;1.35;;;16.30;95.10;;;;;;5035127;28;20029;-69
2023/03/24 09:53:36;;;;;;;5.55;1.30;;;16.30;95.10;;;;;;5034662;28;20025;-69
2023/03/24 09:56:16;;;;;;;6.57;1.95;;;16.30;95.10;;;;;;5035147;28;20030;-68
2023/03/24 09:58:45;;;;;;;6.97;2.20;;;16.30;95.10;;;;;;5034861;28;20033;-69
2023/03/24 10:01:15;;;;;;;7.70;2.10;;;16.20;95.10;;;;;;5034856;28;20167;-71
2023/03/24 10:03:45;;;;;;;5.68;1.50;;;16.30;95.10;;;;;;5034813;28;20025;-68
2023/03/24 10:06:24;;;;;;;7.50;1.70;;;16.30;95.00;;;;;;5034615;28;20040;-68
2023/03/24 10:09:12;;;;;;;6.93;1.17;;;16.30;94.80;;;;;;5034759;28;20041;-70
2023/03/24 10:11:55;;;;;;;5.38;1.73;;;16.30;94.80;;;;;;5034346;28;20026;-69
2023/03/24 10:14:44;;;;;;;6.55;1.65;;;16.30;94.80;;;;;;5034593;28;20459;-71
2023/03/24 10:17:37;;;;;;;5.47;1.60;;;16.30;94.90;;;;;;5034227;28;20037;-68
2023/03/24 10:20:31;;;;;;;9.10;1.80;;;16.30;95.00;;;;;;5034490;28;20073;-68
2023/03/24 10:23:15;;;;;;;7.28;1.70;;;16.30;94.90;;;;;;5034261;28;20030;-69
2023/03/24 10:26:17;;;;;;;6.30;1.63;;;16.30;95.00;;;;;;5034158;28;20022;-69
2023/03/24 10:29:15;;;;;;;5.95;1.75;;;16.30;95.00;;;;;;5034310;28;20100;-68
2023/03/24 10:31:44;;;;;;;3.70;1.13;;;16.30;95.00;;;;;;5034592;28;20033;-69
2023/03/24 10:34:11;;;;;;;7.25;1.80;;;16.20;95.00;;;;;;5034145;28;20022;-68
2023/03/24 10:36:38;;;;;;;5.53;1.25;;;16.30;95.10;;;;;;5034025;28;20034;-71
2023/03/24 10:39:04;;;;;;;6.20;1.40;;;16.30;95.00;;;;;;5033826;28;20028;-70
2023/03/24 10:41:32;;;;;;;5.05;1.20;;;16.30;95.00;;;;;;5034000;28;20038;-69
2023/03/24 10:43:59;;;;;;;5.32;1.27;;;16.30;95.00;;;;;;5033888;28;20026;-68
2023/03/24 10:46:28;;;;;;;6.50;1.50;;;16.30;95.00;;;;;;5033879;28;20383;-67
2023/03/24 10:49:13;;;;;;;4.72;1.20;;;16.30;95.00;;;;;;5033732;28;20475;-70
2023/03/24 10:51:48;;;;;;;6.93;1.33;;;16.30;95.00;;;;;;5033838;28;20044;-68
2023/03/24 10:54:19;;;;;;;4.22;1.10;;;16.30;95.00;;;;;;5033281;28;20020;-68
2023/03/24 10:56:59;;;;;;;5.32;1.00;;;16.30;95.00;;;;;;5033877;28;20041;-68
2023/03/24 10:59:46;;;;;;;6.47;1.58;;;16.30;95.00;;;;;;5033476;28;20017;-69
2023/03/24 11:02:26;;;;;;;5.32;1.30;;;16.30;95.00;;;;;;5033852;28;20534;-69
2023/03/24 11:04:55;;;;;;;4.38;1.38;;;16.30;95.00;;;;;;5032962;28;20033;-70
2023/03/24 11:07:23;;;;;;;4.03;1.17;;;16.30;95.00;;;;;;5033509;28;20504;-71
2023/03/24 11:09:59;;;;;;;4.50;1.20;;;16.30;95.00;;;;;;5032065;28;20026;-72
2023/03/24 11:12:30;;;;;;;4.93;1.10;;;16.30;95.00;;;;;;5031550;28;20048;-72
2023/03/24 11:15:12;;;;;;;8.95;2.00;;;16.30;95.00;;;;;;5032527;28;20072;-70
2023/03/24 11:17:37;;;;;;;4.53;1.33;;;16.30;95.00;;;;;;5033402;28;20037;-71
2023/03/24 11:20:19;;;;;;;6.07;1.63;;;16.20;95.10;;;;;;5033200;28;20040;-69
2023/03/24 11:22:56;;;;;;;4.28;1.15;;;16.20;95.10;;;;;;5033134;28;20029;-72
2023/03/24 11:25:28;;;;;;;4.10;1.25;;;16.20;95.20;;;;;;5032742;28;20032;-68
2023/03/24 11:27:59;;;;;;;6.00;1.33;;;16.20;95.20;;;;;;5033190;28;20017;-71
2023/03/24 11:30:30;;;;;;;5.88;1.40;;;16.20;95.20;;;;;;5033173;28;20013;-69
2023/03/24 11:32:57;;;;;;;5.78;1.60;;;16.20;95.40;;;;;;5033230;28;20595;-70
2023/03/24 11:35:22;;;;;;;4.22;1.08;;;16.20;95.50;;;;;;5032880;28;20018;-68
2023/03/24 11:37:48;;;;;;;7.65;1.85;;;16.20;95.50;;;;;;5032541;28;20056;-70
2023/03/24 11:40:21;;;;;;;6.30;1.38;;;16.20;95.60;;;;;;5032991;28;20033;-71
2023/03/24 11:42:56;;;;;;;4.15;1.15;;;16.20;95.70;;;;;;5033053;28;20053;-70
2023/03/24 11:45:26;;;;;;;7.22;1.67;;;16.20;95.70;;;;;;5032503;28;20026;-70
2023/03/24 11:47:56;;;;;;;5.80;1.45;;;16.30;95.80;;;;;;5032728;28;20409;-70
2023/03/24 11:50:35;;;;;;;6.35;1.38;;;16.20;95.80;;;;;;5032632;28;20100;-69
2023/03/24 11:53:22;;;;;;;2.97;0.88;;;16.30;96.20;;;;;;5032639;28;20061;-70
2023/03/24 11:55:53;;;;;;;6.82;1.58;;;16.30;95.90;;;;;;5032736;28;20099;-71
2023/03/24 11:58:35;;;;;;;4.78;1.30;;;16.30;95.80;;;;;;5032665;28;20021;-72
2023/03/24 12:01:06;;;;;;;2.90;1.10;;;16.40;95.90;;;;;;5032622;28;20040;-71
2023/03/24 12:04:01;;;;;;;6.22;1.88;;;16.30;95.80;;;;;;5032570;28;20044;-70
2023/03/24 12:07:11;;;;;;;6.72;1.15;;;16.40;95.80;;;;;;5032339;28;20043;-71
2023/03/24 12:10:00;;;;;;;5.32;1.45;;;16.40;95.80;;;;;;5031108;28;20037;-71
2023/03/24 12:12:25;;;;;;;3.70;1.02;;;16.30;95.90;;;;;;5032772;28;20386;-72
2023/03/24 12:15:05;;;;;;;6.25;0.85;;;16.30;96.00;;;;;;5032451;28;20029;-72
2023/03/24 12:17:39;;;;;;;5.95;1.35;;;16.30;95.90;;;;;;5031327;28;20033;-71
2023/03/24 12:20:13;;;;;;;5.97;1.35;;;16.30;95.90;;;;;;5032396;28;20041;-69
2023/03/24 12:23:08;;;;;;;7.65;1.88;;;16.30;96.10;;;;;;5032523;28;20028;-71
2023/03/24 12:25:40;;;;;;;5.68;1.50;;;16.30;96.50;;;;;;5032644;28;20013;-70
2023/03/24 12:28:08;;;;;;;6.95;1.20;;;16.30;96.90;;;;;;5032558;28;20116;-69
2023/03/24 12:30:37;;;;;;;7.53;1.58;;;16.40;96.70;;;;;;5032277;28;20483;-71
2023/03/24 12:33:32;;;;;;;5.95;1.38;;;16.50;96.30;;;;;;5032625;28;20029;-69
2023/03/24 12:36:36;;;;;;;4.10;1.27;;;16.40;96.30;;;;;;5031738;28;20116;-71
2023/03/24 12:39:11;;;;;;;4.63;1.02;;;16.40;96.50;;;;;;5032432;28;20021;-70
2023/03/24 12:41:55;;;;;;;6.05;1.40;;;16.40;96.40;;;;;;5032125;28;20107;-72
2023/03/24 12:44:33;;;;;;;7.10;1.92;;;16.30;96.50;;;;;;5032258;28;20021;-70
2023/03/24 12:47:06;;;;;;;8.90;1.42;;;16.40;96.60;;;;;;5032282;28;20116;-70
2023/03/24 12:49:45;;;;;;;5.05;1.00;;;16.30;96.80;;;;;;5031975;28;20105;-70
2023/03/24 12:52:24;;;;;;;7.97;1.55;;;16.20;96.80;;;;;;5032147;28;20413;-69
2023/03/24 12:55:05;;;;;;;8.98;1.60;;;16.10;97.40;;;;;;5032054;28;20022;-71
2023/03/24 12:57:43;;;;;;;4.63;1.30;;;15.90;97.40;;;;;;5032211;28;20045;-70
2023/03/24 13:00:16;;;;;;;5.60;1.45;;;16.00;97.20;;;;;;5032005;28;20032;-69
2023/03/24 13:02:47;;;;;;;3.92;0.90;;;16.10;96.90;;;;;;5026387;28;20021;-69
2023/03/24 13:05:30;;;;;;;4.57;0.85;;;16.40;96.60;;;;;;5031233;28;20013;-69
2023/03/24 13:08:01;;;;;;;6.10;1.33;;;16.50;96.40;;;;;;5031724;28;20072;-69
2023/03/24 13:10:39;;;;;;;6.03;1.38;;;16.50;96.30;;;;;;5031737;28;20483;-70
2023/03/24 13:13:12;;;;;;;4.18;1.38;;;16.50;96.30;;;;;;5031887;28;20108;-71